createdAt,value
2019-04-06T00:00:57.914Z,58.70
2019-04-06T00:03:25.985Z,59.20
2019-04-06T00:05:54.053Z,59.10
2019-04-06T00:08:22.129Z,59.10
2019-04-06T00:10:50.374Z,58.90
2019-04-06T00:13:18.452Z,58.90
2019-04-06T00:15:46.571Z,58.80
2019-04-06T00:18:14.663Z,58.60
2019-04-06T00:20:42.778Z,58.80
2019-04-06T00:23:10.957Z,58.50
2019-04-06T00:25:44.231Z,58.60
2019-04-06T00:28:08.967Z,58.90
2019-04-06T00:30:45.248Z,58.70
2019-04-06T00:33:15.710Z,58.80
2019-04-06T00:35:43.766Z,58.70
2019-04-06T00:38:11.857Z,58.60
2019-04-06T00:40:39.960Z,58.60
2019-04-06T00:43:08.040Z,58.70
2019-04-06T00:45:36.232Z,58.70
2019-04-06T00:48:04.331Z,58.70
2019-04-06T00:50:32.386Z,58.60
2019-04-06T00:53:00.485Z,58.50
2019-04-06T00:55:28.553Z,58.60
2019-04-06T00:57:56.633Z,58.70
2019-04-06T01:00:24.709Z,58.50
2019-04-06T01:02:52.769Z,58.60
2019-04-06T01:05:20.897Z,58.70
2019-04-06T01:07:49.080Z,58.70
2019-04-06T01:10:17.173Z,58.60
2019-04-06T01:12:45.272Z,58.70
2019-04-06T01:15:13.384Z,58.60
2019-04-06T01:17:41.542Z,58.60
2019-04-06T01:20:09.610Z,58.70
2019-04-06T01:22:37.675Z,58.30
2019-04-06T01:25:06.045Z,59.30
2019-04-06T01:27:34.144Z,58.50
2019-04-06T01:30:02.259Z,58.50
2019-04-06T01:32:30.426Z,58.60
2019-04-06T01:34:58.597Z,58.70
2019-04-06T01:37:26.672Z,58.80
2019-04-06T01:39:54.786Z,58.40
2019-04-06T01:42:22.962Z,58.40
2019-04-06T01:44:51.032Z,58.70
2019-04-06T01:47:19.136Z,58.40
2019-04-06T01:49:47.277Z,58.40
2019-04-06T01:52:15.427Z,58.50
2019-04-06T01:54:43.484Z,58.40
2019-04-06T01:57:11.578Z,58.50
2019-04-06T01:59:39.640Z,58.60
2019-04-06T02:02:19.014Z,58.60
2019-04-06T02:04:47.077Z,58.60
2019-04-06T02:07:15.156Z,58.50
2019-04-06T02:09:43.312Z,58.60
2019-04-06T02:12:11.447Z,58.30
2019-04-06T02:14:39.522Z,58.20
2019-04-06T02:17:07.618Z,58.50
2019-04-06T02:19:35.721Z,58.50
2019-04-06T02:22:03.784Z,58.40
2019-04-06T02:24:31.861Z,58.50
2019-04-06T02:26:59.912Z,58.50
2019-04-06T02:29:27.946Z,58.50
2019-04-06T02:32:13.252Z,58.60
2019-04-06T02:38:01.817Z,58.80
2019-04-06T02:40:37.929Z,58.50
2019-04-06T02:43:26.806Z,58.60
2019-04-06T02:45:55.138Z,58.60
2019-04-06T02:48:23.248Z,58.60
2019-04-06T02:50:51.399Z,58.70
2019-04-06T02:53:19.442Z,58.80
2019-04-06T02:55:47.493Z,58.50
2019-04-06T02:58:15.572Z,58.60
2019-04-06T03:00:43.876Z,58.50
2019-04-06T03:03:11.957Z,58.60
2019-04-06T03:05:40.076Z,58.60
2019-04-06T03:08:08.278Z,58.50
2019-04-06T03:10:36.348Z,58.40
2019-04-06T03:13:04.456Z,58.50
2019-04-06T03:15:32.549Z,58.40
2019-04-06T03:18:00.666Z,58.60
2019-04-06T03:20:28.784Z,59.20
2019-04-06T03:22:56.815Z,58.60
2019-04-06T03:25:25.176Z,58.50
2019-04-06T03:27:53.256Z,58.60
2019-04-06T03:30:21.439Z,58.70
2019-04-06T03:32:49.469Z,58.50
2019-04-06T03:35:17.548Z,58.60
2019-04-06T03:37:45.577Z,58.60
2019-04-06T03:40:13.629Z,58.70
2019-04-06T03:42:41.727Z,58.60
2019-04-06T03:45:09.758Z,58.50
2019-04-06T03:47:37.807Z,58.70
2019-04-06T03:50:05.892Z,58.60
2019-04-06T03:52:33.998Z,58.70
2019-04-06T03:55:02.027Z,58.80
2019-04-06T03:57:30.132Z,58.80
2019-04-06T03:59:58.222Z,58.70
2019-04-06T04:02:26.271Z,58.70
2019-04-06T04:04:54.350Z,58.70
2019-04-06T04:07:22.421Z,58.80
2019-04-06T04:09:50.543Z,58.80
2019-04-06T04:12:18.622Z,58.80
2019-04-06T04:14:46.663Z,58.70
2019-04-06T04:17:14.700Z,58.80
2019-04-06T04:19:42.760Z,58.90
2019-04-06T04:22:10.862Z,58.70
2019-04-06T04:24:38.942Z,58.80
2019-04-06T04:27:06.973Z,58.90
2019-04-06T04:29:35.012Z,58.90
2019-04-06T04:32:03.069Z,59.60
2019-04-06T04:34:31.100Z,59.00
2019-04-06T04:36:59.121Z,58.90
2019-04-06T04:39:27.171Z,58.80
2019-04-06T04:41:55.216Z,58.80
2019-04-06T04:44:23.219Z,58.90
2019-04-06T04:46:51.285Z,59.40
2019-04-06T04:49:19.388Z,58.80
2019-04-06T04:51:47.700Z,58.80
2019-04-06T04:54:16.083Z,58.90
2019-04-06T04:56:44.138Z,58.90
2019-04-06T04:59:12.169Z,58.80
2019-04-06T05:01:40.438Z,58.90
2019-04-06T05:04:08.479Z,58.80
2019-04-06T05:06:36.540Z,58.80
2019-04-06T05:09:05.636Z,58.90
2019-04-06T05:11:33.842Z,59.00
2019-04-06T05:14:01.895Z,59.00
2019-04-06T05:16:30.074Z,58.90
2019-04-06T05:18:58.043Z,58.90
2019-04-06T05:21:26.149Z,58.90
2019-04-06T05:23:54.242Z,58.90
2019-04-06T05:26:22.276Z,58.80
2019-04-06T05:28:50.318Z,59.00
2019-04-06T05:31:18.336Z,59.10
2019-04-06T05:33:46.374Z,59.20
2019-04-06T05:36:14.486Z,59.30
2019-04-06T05:38:42.548Z,59.00
2019-04-06T05:41:10.662Z,59.10
2019-04-06T05:43:38.678Z,59.10
2019-04-06T05:46:06.734Z,59.10
2019-04-06T05:48:36.828Z,59.10
2019-04-06T05:51:04.613Z,59.20
2019-04-06T05:53:32.999Z,59.00
2019-04-06T05:56:01.069Z,59.10
2019-04-06T05:58:29.243Z,59.20
2019-04-06T06:00:57.299Z,59.20
2019-04-06T06:03:25.378Z,59.10
2019-04-06T06:05:53.392Z,59.10
2019-04-06T06:08:21.420Z,59.20
2019-04-06T06:10:49.578Z,59.30
2019-04-06T06:13:17.813Z,59.30
2019-04-06T06:15:45.843Z,59.10
2019-04-06T06:18:14.132Z,59.30
2019-04-06T06:20:43.666Z,59.10
2019-04-06T06:23:11.691Z,59.20
2019-04-06T06:25:39.747Z,59.10
2019-04-06T06:28:14.480Z,59.00
2019-04-06T06:30:37.714Z,59.20
2019-04-06T06:33:05.771Z,59.50
2019-04-06T06:35:33.754Z,59.60
2019-04-06T06:38:01.799Z,59.80
2019-04-06T06:40:29.882Z,60.10
2019-04-06T06:42:58.014Z,60.40
2019-04-06T06:45:26.020Z,60.40
2019-04-06T06:47:54.075Z,60.20
2019-04-06T06:50:22.247Z,59.80
2019-04-06T06:52:50.359Z,59.00
2019-04-06T06:55:18.389Z,58.80
2019-04-06T06:57:46.622Z,59.30
2019-04-06T07:00:14.635Z,59.40
2019-04-06T07:02:42.733Z,59.20
2019-04-06T07:05:10.781Z,59.00
2019-04-06T07:07:38.816Z,59.10
2019-04-06T07:10:06.994Z,58.90
2019-04-06T07:12:35.016Z,59.70
2019-04-06T07:15:03.241Z,59.40
2019-04-06T07:17:31.514Z,58.80
2019-04-06T07:19:59.535Z,58.80
2019-04-06T07:22:27.557Z,58.70
2019-04-06T07:24:55.753Z,58.70
2019-04-06T07:27:23.776Z,58.70
2019-04-06T07:29:51.824Z,58.60
2019-04-06T07:32:19.872Z,58.70
2019-04-06T07:34:47.896Z,58.70
2019-04-06T07:37:16.228Z,58.70
2019-04-06T07:39:44.279Z,58.70
2019-04-06T07:42:12.304Z,58.60
2019-04-06T07:44:40.538Z,58.90
2019-04-06T07:47:08.590Z,59.00
2019-04-06T07:49:36.797Z,59.00
2019-04-06T07:52:04.803Z,59.80
2019-04-06T07:54:32.886Z,60.90
2019-04-06T07:57:01.009Z,60.90
2019-04-06T07:59:32.482Z,61.50
2019-04-06T08:02:00.493Z,60.60
2019-04-06T08:04:28.494Z,60.40
2019-04-06T08:06:56.837Z,60.40
2019-04-06T08:09:24.919Z,60.20
2019-04-06T08:11:52.946Z,60.20
2019-04-06T08:14:20.967Z,60.20
2019-04-06T08:16:49.184Z,59.60
2019-04-06T08:19:17.597Z,59.40
2019-04-06T08:21:45.755Z,59.60
2019-04-06T08:24:13.980Z,59.60
2019-04-06T08:26:42.050Z,59.80
2019-04-06T08:29:10.079Z,59.70
2019-04-06T08:31:38.260Z,60.70
2019-04-06T08:34:06.308Z,60.20
2019-04-06T08:36:37.343Z,60.10
2019-04-06T08:39:06.250Z,59.70
2019-04-06T08:41:34.266Z,60.20
2019-04-06T08:44:02.309Z,60.00
2019-04-06T08:46:30.579Z,60.00
2019-04-06T08:48:58.987Z,60.00
2019-04-06T08:51:26.995Z,59.60
2019-04-06T08:53:55.344Z,59.40
2019-04-06T08:56:23.398Z,59.60
2019-04-06T08:58:51.707Z,59.50
2019-04-06T09:01:19.882Z,59.50
2019-04-06T09:03:48.141Z,59.60
2019-04-06T09:06:16.474Z,59.40
2019-04-06T09:08:44.567Z,59.70
2019-04-06T09:11:12.627Z,59.50
2019-04-06T09:13:40.793Z,59.60
2019-04-06T09:16:09.150Z,59.30
2019-04-06T09:18:37.327Z,59.10
2019-04-06T09:21:05.345Z,59.00
2019-04-06T09:23:33.411Z,58.80
2019-04-06T09:26:01.578Z,58.70
2019-04-06T09:28:29.880Z,59.10
2019-04-06T09:30:57.934Z,59.00
2019-04-06T09:33:26.011Z,58.90
2019-04-06T09:35:54.159Z,59.20
2019-04-06T09:38:22.542Z,59.60
2019-04-06T09:40:50.893Z,59.10
2019-04-06T09:43:18.990Z,58.80
2019-04-06T09:46:04.582Z,58.70
2019-04-06T09:48:41.931Z,58.70
2019-04-06T09:51:37.702Z,58.70
2019-04-06T09:54:25.061Z,58.80
2019-04-06T09:57:04.277Z,58.80
2019-04-06T09:59:49.725Z,58.70
2019-04-06T10:02:36.611Z,58.70
2019-04-06T10:05:13.671Z,58.60
2019-04-06T10:08:09.315Z,58.80
2019-04-06T10:11:01.922Z,58.70
2019-04-06T10:13:41.222Z,58.60
2019-04-06T10:16:30.863Z,58.70
2019-04-06T10:19:20.423Z,58.60
2019-04-06T10:22:06.811Z,58.50
2019-04-06T10:24:42.903Z,58.40
2019-04-06T10:27:37.923Z,58.30
2019-04-06T10:30:27.604Z,58.50
2019-04-06T10:33:09.760Z,58.30
2019-04-06T10:35:59.692Z,58.30
2019-04-06T10:38:40.491Z,58.30
2019-04-06T10:41:28.382Z,58.20
2019-04-06T10:44:21.001Z,58.30
2019-04-06T10:47:03.919Z,58.30
2019-04-06T10:49:53.571Z,58.50
2019-04-06T10:52:38.721Z,58.30
2019-04-06T10:55:24.208Z,58.20
2019-04-06T10:58:20.213Z,58.20
2019-04-06T11:01:22.124Z,58.30
2019-04-06T11:03:55.496Z,58.20
2019-04-06T11:06:48.298Z,58.00
2019-04-06T11:09:29.273Z,58.00
2019-04-06T11:12:19.392Z,58.00
2019-04-06T11:15:15.124Z,58.00
2019-04-06T11:18:02.313Z,58.00
2019-04-06T11:20:49.437Z,57.90
2019-04-06T11:23:34.909Z,58.10
2019-04-06T11:26:30.900Z,58.00
2019-04-06T11:29:23.676Z,57.70
2019-04-06T11:32:16.684Z,57.80
2019-04-06T11:35:00.376Z,57.70
2019-04-06T11:37:48.079Z,57.70
2019-04-06T11:40:22.950Z,57.80
2019-04-06T11:43:01.781Z,57.50
2019-04-06T11:45:48.046Z,57.50
2019-04-06T11:48:38.731Z,57.50
2019-04-06T11:51:28.308Z,57.50
2019-04-06T11:54:15.119Z,57.20
2019-04-06T11:56:50.532Z,57.50
2019-04-06T11:59:36.023Z,57.20
2019-04-06T12:02:21.774Z,57.50
2019-04-06T12:05:23.763Z,57.10
2019-04-06T12:08:07.125Z,57.40
2019-04-06T12:10:54.244Z,57.80
2019-04-06T12:13:44.442Z,57.40
2019-04-06T12:16:46.589Z,58.20
2019-04-06T12:19:33.505Z,59.10
2019-04-06T12:22:10.984Z,59.80
2019-04-06T12:25:07.102Z,60.20
2019-04-06T12:27:54.742Z,60.50
2019-04-06T12:30:37.302Z,60.50
2019-04-06T12:33:15.774Z,59.80
2019-04-06T12:36:10.390Z,59.80
2019-04-06T12:38:55.879Z,60.10
2019-04-06T12:41:41.069Z,60.10
2019-04-06T12:44:24.175Z,59.70
2019-04-06T12:47:20.529Z,59.00
2019-04-06T12:50:07.524Z,58.90
2019-04-06T12:52:51.444Z,57.80
2019-04-06T12:55:28.429Z,57.80
2019-04-06T12:58:18.388Z,57.50
2019-04-06T13:00:56.221Z,57.30
2019-04-06T13:03:52.368Z,57.70
2019-04-06T13:06:41.995Z,57.40
2019-04-06T13:09:31.951Z,57.40
2019-04-06T13:12:08.092Z,57.30
2019-04-06T13:14:45.698Z,57.10
2019-04-06T13:17:21.782Z,56.90
2019-04-06T13:20:01.557Z,56.90
2019-04-06T13:22:47.940Z,56.80
2019-04-06T13:25:24.756Z,57.30
2019-04-06T13:28:05.906Z,56.50
2019-04-06T13:31:02.570Z,56.40
2019-04-06T13:33:53.287Z,56.20
2019-04-06T13:36:38.854Z,56.20
2019-04-06T13:39:31.726Z,56.00
2019-04-06T13:42:24.637Z,55.90
2019-04-06T13:45:11.617Z,56.50
2019-04-06T13:47:57.064Z,55.70
2019-04-06T13:50:56.043Z,55.40
2019-04-06T13:53:33.599Z,55.40
2019-04-06T13:56:26.485Z,55.50
2019-04-06T13:59:09.755Z,55.30
2019-04-06T14:02:05.529Z,55.80
2019-04-06T14:04:52.465Z,55.50
2019-04-06T14:07:54.467Z,55.30
2019-04-06T14:10:41.910Z,55.30
2019-04-06T14:13:37.865Z,55.60
2019-04-06T14:16:23.326Z,56.00
2019-04-06T14:19:09.965Z,55.40
2019-04-06T14:21:46.482Z,55.40
2019-04-06T14:24:43.801Z,55.60
2019-04-06T14:27:33.391Z,55.60
2019-04-06T14:30:20.264Z,55.10
2019-04-06T14:33:09.836Z,54.90
2019-04-06T14:36:01.318Z,55.70
2019-04-06T14:38:48.114Z,55.00
2019-04-06T14:41:49.985Z,55.20
2019-04-06T14:44:39.827Z,55.20
2019-04-06T14:47:42.000Z,55.20
2019-04-06T14:50:35.222Z,55.10
2019-04-06T14:53:16.530Z,54.80
2019-04-06T14:56:09.407Z,54.70
2019-04-06T14:59:14.206Z,54.70
2019-04-06T15:02:06.655Z,54.60
2019-04-06T15:05:02.409Z,54.60
2019-04-06T15:07:47.987Z,54.70
2019-04-06T15:10:37.381Z,55.40
2019-04-06T15:13:32.621Z,54.60
2019-04-06T15:16:22.124Z,54.80
2019-04-06T15:19:00.608Z,54.50
2019-04-06T15:21:41.534Z,54.30
2019-04-06T15:24:44.057Z,54.70
2019-04-06T15:27:39.978Z,54.50
2019-04-06T15:30:23.678Z,54.30
2019-04-06T15:33:20.076Z,54.30
2019-04-06T15:36:18.987Z,54.60
2019-04-06T15:39:05.832Z,54.60
2019-04-06T15:41:55.368Z,54.50
2019-04-06T15:44:43.889Z,55.20
2019-04-06T15:47:29.954Z,54.60
2019-04-06T15:50:19.718Z,54.60
2019-04-06T15:53:05.214Z,54.40
2019-04-06T15:55:51.051Z,54.20
2019-04-06T15:58:40.964Z,54.40
2019-04-06T16:01:17.554Z,54.30
2019-04-06T16:04:07.398Z,54.40
2019-04-06T16:07:00.842Z,54.50
2019-04-06T16:09:56.663Z,53.70
2019-04-06T16:12:30.976Z,53.40
2019-04-06T16:15:17.772Z,53.30
2019-04-06T16:18:06.052Z,53.50
2019-04-06T16:20:59.619Z,53.80
2019-04-06T16:23:36.147Z,53.90
2019-04-06T16:26:29.161Z,54.10
2019-04-06T16:29:21.778Z,54.20
2019-04-06T16:32:13.295Z,54.00
2019-04-06T16:35:06.579Z,54.00
2019-04-06T16:38:02.191Z,54.00
2019-04-06T16:40:48.611Z,53.80
2019-04-06T16:43:38.806Z,54.30
2019-04-06T16:46:25.826Z,55.80
2019-04-06T16:49:11.889Z,56.80
2019-04-06T16:52:10.090Z,55.40
2019-04-06T16:54:56.870Z,54.80
2019-04-06T16:57:52.720Z,54.90
2019-04-06T17:00:38.114Z,55.10
2019-04-06T17:03:31.222Z,55.30
2019-04-06T17:06:23.701Z,55.80
2019-04-06T17:09:29.252Z,57.50
2019-04-06T17:12:28.335Z,58.50
2019-04-06T17:15:06.267Z,59.00
2019-04-06T17:18:02.395Z,58.90
2019-04-06T17:20:47.758Z,59.60
2019-04-06T17:23:52.677Z,59.30
2019-04-06T17:26:40.055Z,59.60
2019-04-06T17:29:17.751Z,59.00
2019-04-06T17:32:07.457Z,57.70
2019-04-06T17:34:53.476Z,58.10
2019-04-06T17:37:26.017Z,59.20
2019-04-06T17:40:22.224Z,59.40
2019-04-06T17:43:07.760Z,58.20
2019-04-06T17:46:00.409Z,57.80
2019-04-06T17:48:46.371Z,58.80
2019-04-06T17:51:29.936Z,58.80
2019-04-06T17:54:16.766Z,58.70
2019-04-06T17:56:57.072Z,58.60
2019-04-06T17:59:43.154Z,58.20
2019-04-06T18:02:30.164Z,57.70
2019-04-06T18:05:16.196Z,57.80
2019-04-06T18:08:15.460Z,59.10
2019-04-06T18:11:00.853Z,59.60
2019-04-06T18:13:59.831Z,62.50
2019-04-06T18:16:34.238Z,62.50
2019-04-06T18:19:02.722Z,62.00
2019-04-06T18:21:31.134Z,62.50
2019-04-06T18:23:59.226Z,63.30
2019-04-06T18:26:27.878Z,61.90
2019-04-06T18:28:56.244Z,62.40
2019-04-06T18:31:37.193Z,63.40
2019-04-06T18:34:05.284Z,62.40
2019-04-06T18:36:50.642Z,61.50
2019-04-06T18:39:19.463Z,62.00
2019-04-06T18:41:47.560Z,61.30
2019-04-06T18:44:15.657Z,60.80
2019-04-06T18:46:43.817Z,61.70
2019-04-06T18:49:12.482Z,60.70
2019-04-06T18:51:41.019Z,60.40
2019-04-06T18:54:09.872Z,60.60
2019-04-06T18:56:38.002Z,60.90
2019-04-06T18:59:06.168Z,60.60
2019-04-06T19:01:34.821Z,60.90
2019-04-06T19:04:02.965Z,60.70
2019-04-06T19:06:31.024Z,60.70
2019-04-06T19:08:59.609Z,60.60
2019-04-06T19:11:27.677Z,60.50
2019-04-06T19:13:55.743Z,60.60
2019-04-06T19:16:23.798Z,60.60
2019-04-06T19:18:52.045Z,60.60
2019-04-06T19:21:20.172Z,60.70
2019-04-06T19:23:48.355Z,60.70
2019-04-06T19:26:16.466Z,60.60
2019-04-06T19:28:44.699Z,60.90
2019-04-06T19:31:12.795Z,60.90
2019-04-06T19:33:40.991Z,61.40
2019-04-06T19:36:09.036Z,61.40
2019-04-06T19:38:37.226Z,61.50
2019-04-06T19:41:05.411Z,61.60
2019-04-06T19:43:33.500Z,61.50
2019-04-06T19:46:02.217Z,61.50
2019-04-06T19:48:30.533Z,61.60
2019-04-06T19:50:59.014Z,61.60
2019-04-06T19:53:27.746Z,61.60
2019-04-06T19:55:56.337Z,61.80
2019-04-06T19:58:24.548Z,61.80
2019-04-06T20:00:52.633Z,61.80
2019-04-06T20:03:21.339Z,61.90
2019-04-06T20:05:49.536Z,61.80
2019-04-06T20:08:17.612Z,62.10
2019-04-06T20:10:45.661Z,62.10
2019-04-06T20:13:13.731Z,62.00
2019-04-06T20:15:41.809Z,62.10
2019-04-06T20:18:10.203Z,62.80
2019-04-06T20:20:38.828Z,62.30
2019-04-06T20:23:07.295Z,62.50
2019-04-06T20:25:35.422Z,62.30
2019-04-06T20:28:03.497Z,62.30
2019-04-06T20:30:32.030Z,62.50
2019-04-06T20:33:00.367Z,62.40
2019-04-06T20:35:28.484Z,62.50
2019-04-06T20:37:56.538Z,62.20
2019-04-06T20:40:24.573Z,62.80
2019-04-06T20:42:52.735Z,62.40
2019-04-06T20:45:20.789Z,62.30
2019-04-06T20:47:48.891Z,62.30
2019-04-06T20:50:17.014Z,62.40
2019-04-06T20:52:45.107Z,62.50
2019-04-06T20:55:13.163Z,62.40
2019-04-06T20:57:41.281Z,62.50
2019-04-06T21:00:09.705Z,62.20
2019-04-06T21:02:37.942Z,62.40
2019-04-06T21:05:06.084Z,62.40
2019-04-06T21:07:34.261Z,62.60
2019-04-06T21:10:02.323Z,62.80
2019-04-06T21:12:30.443Z,62.70
2019-04-06T21:14:58.866Z,62.40
2019-04-06T21:17:26.995Z,62.70
2019-04-06T21:19:56.024Z,62.60
2019-04-06T21:22:24.211Z,62.50
2019-04-06T21:24:52.753Z,62.80
2019-04-06T21:27:21.416Z,62.50
2019-04-06T21:29:49.620Z,63.00
2019-04-06T21:32:18.036Z,62.70
2019-04-06T21:34:46.176Z,62.70
2019-04-06T21:37:14.466Z,62.90
2019-04-06T21:39:42.759Z,62.90
2019-04-06T21:42:10.841Z,63.30
2019-04-06T21:44:38.940Z,63.60
2019-04-06T21:47:08.049Z,63.40
2019-04-06T21:49:37.182Z,63.80
2019-04-06T21:52:05.386Z,63.60
2019-04-06T21:54:34.371Z,63.50
2019-04-06T21:57:02.789Z,63.20
2019-04-06T21:59:31.140Z,63.20
2019-04-06T22:01:59.290Z,63.20
2019-04-06T22:04:27.766Z,63.30
2019-04-06T22:06:56.354Z,63.70
2019-04-06T22:09:24.452Z,63.60
2019-04-06T22:11:53.097Z,63.50
2019-04-06T22:14:21.204Z,63.20
2019-04-06T22:16:49.352Z,63.60
2019-04-06T22:19:17.499Z,63.70
2019-04-06T22:21:46.207Z,63.50
2019-04-06T22:24:14.897Z,63.60
2019-04-06T22:26:43.016Z,63.30
2019-04-06T22:29:11.752Z,63.60
2019-04-06T22:31:39.892Z,63.50
2019-04-06T22:34:08.101Z,64.20
2019-04-06T22:36:36.855Z,63.50
2019-04-06T22:39:06.163Z,63.50
2019-04-06T22:41:34.179Z,63.70
2019-04-06T22:44:02.274Z,63.50
2019-04-06T22:46:30.339Z,63.60
2019-04-06T22:48:59.520Z,63.60
2019-04-06T22:51:28.113Z,63.60
2019-04-06T22:53:56.701Z,64.50
2019-04-06T22:56:24.977Z,63.60
2019-04-06T22:58:53.066Z,63.60
2019-04-06T23:01:21.972Z,63.30
2019-04-06T23:04:07.587Z,63.40
2019-04-06T23:06:49.750Z,63.50
2019-04-06T23:09:17.871Z,63.50
2019-04-06T23:11:45.954Z,63.40
2019-04-06T23:14:14.073Z,63.70
2019-04-06T23:16:42.511Z,63.50
2019-04-06T23:19:10.983Z,63.50
2019-04-06T23:21:39.695Z,63.60
2019-04-06T23:24:08.373Z,63.60
2019-04-06T23:26:36.425Z,63.70
2019-04-06T23:29:05.162Z,63.70
2019-04-06T23:31:33.474Z,63.90
2019-04-06T23:34:02.029Z,63.80
2019-04-06T23:36:30.462Z,63.80
2019-04-06T23:38:58.565Z,63.80
2019-04-06T23:41:26.785Z,64.00
2019-04-06T23:43:54.857Z,63.90
2019-04-06T23:46:23.326Z,63.90
2019-04-06T23:48:52.068Z,63.80
2019-04-06T23:51:21.031Z,63.90
2019-04-06T23:53:49.112Z,64.00
2019-04-06T23:56:17.187Z,63.80
2019-04-06T23:58:45.227Z,64.20
